Time;durP1;ratioP1;P1;durP2;ratioP2;P2;SDS_P1;SDS_P2;PMS_P1;PMS_P2;Temp;Humidity;BMP_temperature;BMP_pressure;BME280_temperature;BME280_humidity;BME280_pressure;Samples;Min_cycle;Max_cycle;Signal;HPM_P1;HPM_P2
2023/05/19 00:01:13;;;;;;;15.90;3.97;;;15.60;58.40;;;;;;5010407;28;20475;-62
2023/05/19 00:03:51;;;;;;;5.73;3.73;;;15.60;58.50;;;;;;5018377;28;20491;-62
2023/05/19 00:06:20;;;;;;;9.77;3.90;;;15.60;58.80;;;;;;5010669;28;20465;-62
2023/05/19 00:08:46;;;;;;;7.37;4.00;;;15.50;59.00;;;;;;5021943;28;20469;-62
2023/05/19 00:11:11;;;;;;;6.63;3.57;;;15.50;59.20;;;;;;5020788;28;20423;-62
2023/05/19 00:13:37;;;;;;;8.63;5.50;;;15.50;59.20;;;;;;5017356;28;22279;-62
2023/05/19 00:16:04;;;;;;;7.87;4.50;;;15.50;59.20;;;;;;5017175;28;20191;-62
2023/05/19 00:18:30;;;;;;;12.80;5.47;;;15.40;59.30;;;;;;5019207;28;20307;-62
2023/05/19 00:20:55;;;;;;;7.23;3.47;;;15.40;59.50;;;;;;5011535;28;20537;-62
2023/05/19 00:23:21;;;;;;;8.20;3.70;;;15.40;59.70;;;;;;5022847;28;20188;-62
2023/05/19 00:25:46;;;;;;;5.47;4.17;;;15.30;59.90;;;;;;5021834;28;20212;-62
2023/05/19 00:28:12;;;;;;;5.00;3.60;;;15.30;60.30;;;;;;5015479;28;20303;-62
2023/05/19 00:30:37;;;;;;;4.83;3.80;;;15.30;60.40;;;;;;5016579;28;20669;-62
2023/05/19 00:33:03;;;;;;;6.30;3.67;;;15.20;60.80;;;;;;5019115;28;21020;-62
2023/05/19 00:35:29;;;;;;;9.60;4.47;;;15.20;60.90;;;;;;5021051;28;20527;-62
2023/05/19 00:37:54;;;;;;;8.27;3.90;;;15.10;61.10;;;;;;5021829;28;20185;-62
2023/05/19 00:40:21;;;;;;;4.13;3.50;;;15.10;61.20;;;;;;5021613;28;20184;-62
2023/05/19 00:42:46;;;;;;;6.33;3.67;;;15.10;61.70;;;;;;5019571;28;20192;-62
2023/05/19 00:45:12;;;;;;;6.47;3.77;;;15.10;62.00;;;;;;5017210;28;20435;-62
2023/05/19 00:47:38;;;;;;;5.70;3.57;;;15.00;62.30;;;;;;5023375;28;20215;-62
2023/05/19 00:50:04;;;;;;;8.63;3.93;;;14.90;63.30;;;;;;5020743;28;20211;-62
2023/05/19 00:52:30;;;;;;;7.47;3.90;;;15.00;62.60;;;;;;5025556;28;20462;-62
2023/05/19 00:54:55;;;;;;;7.00;3.50;;;14.90;62.80;;;;;;5018281;28;20498;-62
2023/05/19 00:57:21;;;;;;;7.57;3.73;;;14.90;63.20;;;;;;5021494;28;20196;-62
2023/05/19 00:59:49;;;;;;;6.50;3.87;;;14.80;63.10;;;;;;5013215;28;20213;-62
2023/05/19 01:02:15;;;;;;;8.53;4.20;;;14.80;63.60;;;;;;5012970;28;20196;-62
2023/05/19 01:04:43;;;;;;;10.43;3.63;;;14.80;63.80;;;;;;5019244;28;20493;-62
2023/05/19 01:07:11;;;;;;;10.27;4.07;;;14.80;64.00;;;;;;5022981;28;20623;-62
2023/05/19 01:09:36;;;;;;;5.33;3.30;;;14.70;64.10;;;;;;5024055;28;20442;-62
2023/05/19 01:12:02;;;;;;;8.53;3.70;;;14.70;64.20;;;;;;5022409;28;21197;-62
2023/05/19 01:14:29;;;;;;;8.37;3.60;;;14.70;64.50;;;;;;5012318;28;22234;-62
2023/05/19 01:17:07;;;;;;;6.93;4.83;;;14.70;64.50;;;;;;5016172;28;20489;-62
2023/05/19 01:19:35;;;;;;;8.87;3.67;;;14.70;64.80;;;;;;5014786;28;20986;-62
2023/05/19 01:22:11;;;;;;;5.70;3.90;;;14.60;64.90;;;;;;5017328;28;20412;-62
2023/05/19 01:25:16;;;;;;;5.53;3.27;;;14.60;65.00;;;;;;5019441;28;21170;-62
2023/05/19 01:28:11;;;;;;;11.50;4.10;;;14.60;65.20;;;;;;5013609;28;20505;-62
2023/05/19 01:30:41;;;;;;;9.63;3.90;;;14.50;65.30;;;;;;5007533;28;20534;-62
2023/05/19 01:33:10;;;;;;;6.30;3.37;;;14.50;65.40;;;;;;5014827;28;20926;-62
2023/05/19 01:35:37;;;;;;;6.33;3.60;;;14.50;65.40;;;;;;5017107;28;20438;-62
2023/05/19 01:38:06;;;;;;;4.27;3.57;;;14.50;65.90;;;;;;5017415;28;20734;-62
2023/05/19 01:40:33;;;;;;;4.50;3.40;;;14.50;65.90;;;;;;5023168;28;20467;-62
2023/05/19 01:43:00;;;;;;;6.40;4.70;;;14.50;66.60;;;;;;5018736;28;20614;-62
2023/05/19 01:45:31;;;;;;;6.60;4.00;;;14.50;67.40;;;;;;5019732;28;20448;-62
2023/05/19 01:48:00;;;;;;;5.10;4.10;;;14.50;66.40;;;;;;5015636;28;21117;-62
2023/05/19 01:50:27;;;;;;;5.27;3.93;;;14.50;66.50;;;;;;5017980;28;20486;-62
2023/05/19 01:52:53;;;;;;;5.37;3.53;;;14.40;66.50;;;;;;5014868;28;20519;-62
2023/05/19 01:55:20;;;;;;;5.27;3.43;;;14.40;66.80;;;;;;5018438;28;20435;-62
2023/05/19 01:57:54;;;;;;;5.70;4.47;;;14.40;67.00;;;;;;5017863;28;20423;-62
2023/05/19 02:00:41;;;;;;;5.23;3.40;;;14.40;67.10;;;;;;5016279;28;20436;-62
2023/05/19 02:03:06;;;;;;;6.20;3.43;;;14.30;67.20;;;;;;5018817;28;20462;-62
2023/05/19 02:05:34;;;;;;;5.57;3.57;;;14.30;67.50;;;;;;5013030;28;20530;-62
2023/05/19 02:08:18;;;;;;;10.97;3.37;;;14.30;67.60;;;;;;5017066;28;20841;-62
2023/05/19 02:10:50;;;;;;;7.03;3.80;;;14.30;67.80;;;;;;5019680;28;20415;-62
2023/05/19 02:13:19;;;;;;;5.30;3.83;;;14.20;67.90;;;;;;5022287;28;20415;-62
2023/05/19 02:15:45;;;;;;;5.17;3.73;;;14.20;68.30;;;;;;5018627;28;20502;-62
2023/05/19 02:18:12;;;;;;;8.90;3.43;;;14.20;68.50;;;;;;5017410;28;20566;-62
2023/05/19 02:20:39;;;;;;;5.13;3.80;;;14.20;70.10;;;;;;5020258;28;20459;-62
2023/05/19 02:23:05;;;;;;;5.17;3.90;;;14.10;69.40;;;;;;5016881;28;20791;-62
2023/05/19 02:25:31;;;;;;;7.70;3.90;;;14.00;69.60;;;;;;5017032;28;20447;-62
2023/05/19 02:27:57;;;;;;;5.53;4.00;;;14.00;69.90;;;;;;5016350;28;20468;-62
2023/05/19 02:30:23;;;;;;;9.50;4.00;;;14.00;70.00;;;;;;5022117;28;20185;-62
2023/05/19 02:32:48;;;;;;;6.23;3.37;;;14.00;70.30;;;;;;5022446;28;20493;-62
2023/05/19 02:35:14;;;;;;;6.40;3.53;;;13.90;70.60;;;;;;5023278;28;20184;-62
2023/05/19 02:37:40;;;;;;;8.27;4.10;;;13.90;71.40;;;;;;5020460;28;20271;-62
2023/05/19 02:40:06;;;;;;;10.53;4.40;;;13.80;71.60;;;;;;5015748;28;20231;-62
2023/05/19 02:42:32;;;;;;;5.33;3.63;;;13.80;71.80;;;;;;5022411;28;20354;-62
2023/05/19 02:44:58;;;;;;;7.20;4.23;;;13.80;72.30;;;;;;5016847;28;20969;-62
2023/05/19 02:47:24;;;;;;;5.60;3.70;;;13.80;72.50;;;;;;5018781;28;20730;-61
2023/05/19 02:49:49;;;;;;;6.43;4.10;;;13.80;72.70;;;;;;5025858;28;20439;-62
2023/05/19 02:52:15;;;;;;;5.20;4.10;;;13.80;72.90;;;;;;5019990;28;21277;-62
2023/05/19 02:54:41;;;;;;;5.50;3.60;;;13.70;73.00;;;;;;5014807;28;20677;-61
2023/05/19 02:57:07;;;;;;;5.33;3.80;;;13.70;73.10;;;;;;5024050;28;20196;-62
2023/05/19 02:59:32;;;;;;;7.83;4.07;;;13.70;73.10;;;;;;5017252;28;20905;-62
2023/05/19 03:02:00;;;;;;;5.37;3.60;;;13.70;73.30;;;;;;5007774;28;20497;-62
2023/05/19 03:04:26;;;;;;;4.93;4.13;;;13.70;73.70;;;;;;5017066;28;20205;-62
2023/05/19 03:06:52;;;;;;;5.50;3.90;;;13.60;74.00;;;;;;5014391;28;20562;-62
2023/05/19 03:09:18;;;;;;;7.27;3.87;;;13.60;74.30;;;;;;5011226;28;20536;-62
2023/05/19 03:11:44;;;;;;;5.90;4.57;;;13.50;74.90;;;;;;5018854;28;20435;-62
2023/05/19 03:14:10;;;;;;;7.80;4.40;;;13.50;75.50;;;;;;5018996;28;20485;-62
2023/05/19 03:16:36;;;;;;;6.20;4.10;;;13.50;75.60;;;;;;5013166;28;20172;-62
2023/05/19 03:19:02;;;;;;;7.70;4.80;;;13.50;76.00;;;;;;5014880;28;20458;-62
2023/05/19 03:21:27;;;;;;;6.33;4.60;;;13.50;76.40;;;;;;5018398;28;20220;-62
2023/05/19 03:23:53;;;;;;;9.07;4.03;;;13.50;77.00;;;;;;5019656;28;20193;-62
2023/05/19 03:26:19;;;;;;;6.63;4.70;;;13.50;77.20;;;;;;5013594;28;20458;-62
2023/05/19 03:28:44;;;;;;;7.63;3.97;;;13.40;77.40;;;;;;5019664;28;20208;-62
2023/05/19 03:31:10;;;;;;;10.07;4.70;;;13.40;77.70;;;;;;5016478;28;20192;-62
2023/05/19 03:33:35;;;;;;;5.70;4.97;;;13.40;78.30;;;;;;5017839;28;20796;-62
2023/05/19 03:36:02;;;;;;;12.43;5.03;;;13.40;78.50;;;;;;5023149;28;20674;-62
2023/05/19 03:38:28;;;;;;;5.53;4.37;;;13.40;78.70;;;;;;5020743;28;20284;-62
2023/05/19 03:40:53;;;;;;;8.53;4.50;;;13.30;79.10;;;;;;5018718;28;20531;-62
2023/05/19 03:43:19;;;;;;;6.33;4.13;;;13.20;79.20;;;;;;5013250;28;20184;-61
2023/05/19 03:45:45;;;;;;;21.00;4.83;;;13.20;79.70;;;;;;5019012;28;20696;-62
2023/05/19 03:48:11;;;;;;;8.77;4.77;;;13.20;80.10;;;;;;5012693;28;20213;-61
2023/05/19 03:50:37;;;;;;;7.50;4.50;;;13.20;80.50;;;;;;5018440;28;20173;-61
2023/05/19 03:53:02;;;;;;;13.17;4.77;;;13.20;80.80;;;;;;5014849;28;20437;-61
2023/05/19 03:55:28;;;;;;;6.57;4.50;;;13.10;81.20;;;;;;5017399;28;20188;-61
2023/05/19 03:57:55;;;;;;;5.23;4.70;;;13.10;81.90;;;;;;5017905;28;21741;-61
2023/05/19 04:00:20;;;;;;;9.30;5.17;;;13.10;82.10;;;;;;5018079;28;20415;-61
2023/05/19 04:02:46;;;;;;;6.10;4.37;;;13.10;82.60;;;;;;5015152;28;20447;-62
2023/05/19 04:05:12;;;;;;;10.60;5.70;;;13.10;83.00;;;;;;5016503;28;20674;-63
2023/05/19 04:07:38;;;;;;;10.40;6.33;;;13.10;83.30;;;;;;5032723;28;20215;-62
2023/05/19 04:10:04;;;;;;;6.73;4.20;;;13.00;83.50;;;;;;5017913;28;20459;-63
2023/05/19 04:12:30;;;;;;;10.43;5.10;;;13.00;83.90;;;;;;5017339;28;20181;-62
2023/05/19 04:14:56;;;;;;;4.83;3.87;;;13.10;84.40;;;;;;5011157;28;20440;-62
2023/05/19 04:17:25;;;;;;;10.00;4.70;;;13.00;84.90;;;;;;5013518;28;20461;-62
2023/05/19 04:19:51;;;;;;;7.50;4.30;;;13.00;85.30;;;;;;5020934;28;20212;-62
2023/05/19 04:22:16;;;;;;;6.83;4.90;;;13.00;86.00;;;;;;5013859;28;20445;-62
2023/05/19 04:24:42;;;;;;;6.93;4.50;;;13.00;86.30;;;;;;5026221;28;20442;-62
2023/05/19 04:27:10;;;;;;;5.27;4.63;;;13.00;86.70;;;;;;5026993;28;20173;-62
2023/05/19 04:29:37;;;;;;;5.20;4.43;;;13.00;87.10;;;;;;5025242;28;20687;-62
2023/05/19 04:32:06;;;;;;;6.33;4.27;;;13.00;87.30;;;;;;5022831;28;20415;-62
2023/05/19 04:34:33;;;;;;;8.40;4.17;;;13.00;87.70;;;;;;5024413;28;20765;-62
2023/05/19 04:37:00;;;;;;;9.27;4.03;;;13.00;88.60;;;;;;5024992;28;20932;-62
2023/05/19 04:39:25;;;;;;;5.60;4.70;;;13.00;88.60;;;;;;5026049;28;20445;-62
2023/05/19 04:41:52;;;;;;;10.83;4.87;;;13.00;88.90;;;;;;5016182;28;20424;-62
2023/05/19 04:44:18;;;;;;;8.33;4.63;;;13.00;89.00;;;;;;5026726;28;20642;-62
2023/05/19 04:46:44;;;;;;;6.40;4.40;;;13.10;89.30;;;;;;5021510;28;20411;-62
2023/05/19 04:49:13;;;;;;;6.93;4.63;;;13.10;89.30;;;;;;5019709;28;20475;-62
2023/05/19 04:51:44;;;;;;;6.07;4.00;;;13.10;89.40;;;;;;5022271;28;20426;-62
2023/05/19 04:54:10;;;;;;;6.77;4.70;;;13.10;90.00;;;;;;5039321;28;20450;-62
2023/05/19 04:56:35;;;;;;;6.13;4.50;;;13.10;90.00;;;;;;5017883;28;20462;-62
2023/05/19 04:59:01;;;;;;;8.37;4.90;;;13.20;90.10;;;;;;5013410;28;20254;-62
2023/05/19 05:01:29;;;;;;;11.07;4.07;;;13.20;90.10;;;;;;5017554;28;20203;-62
2023/05/19 05:03:57;;;;;;;7.57;4.63;;;13.20;90.20;;;;;;5017292;28;20196;-62
2023/05/19 05:06:23;;;;;;;6.80;4.40;;;13.20;90.50;;;;;;5017065;28;20446;-62
2023/05/19 05:08:49;;;;;;;9.10;5.20;;;13.20;90.50;;;;;;5018417;28;20467;-63
2023/05/19 05:11:15;;;;;;;5.90;4.83;;;13.30;90.90;;;;;;5017769;28;20215;-62
2023/05/19 05:13:41;;;;;;;5.70;4.30;;;13.30;90.60;;;;;;5012583;28;20518;-62
2023/05/19 05:16:07;;;;;;;5.23;4.63;;;13.40;90.50;;;;;;5015881;28;20181;-62
2023/05/19 05:18:35;;;;;;;6.03;4.43;;;13.40;90.50;;;;;;5018410;28;20258;-62
2023/05/19 05:21:01;;;;;;;7.00;4.00;;;13.50;90.70;;;;;;5017296;28;20463;-61
2023/05/19 05:23:26;;;;;;;5.60;4.07;;;13.50;90.60;;;;;;5020021;28;20435;-62
2023/05/19 05:25:52;;;;;;;6.50;4.20;;;13.50;90.60;;;;;;5020219;28;20939;-62
2023/05/19 05:28:18;;;;;;;6.60;3.60;;;13.50;90.60;;;;;;5017425;28;20212;-62
2023/05/19 05:30:45;;;;;;;8.57;4.40;;;13.50;90.70;;;;;;5014079;28;20188;-62
2023/05/19 05:33:10;;;;;;;5.63;3.90;;;13.50;90.70;;;;;;5017816;28;20192;-63
2023/05/19 05:35:36;;;;;;;5.47;4.40;;;13.50;90.70;;;;;;5016413;28;20435;-62
2023/05/19 05:38:02;;;;;;;7.20;5.60;;;13.60;90.90;;;;;;5014985;28;20208;-62
2023/05/19 05:40:28;;;;;;;9.93;6.83;;;13.60;90.90;;;;;;5015552;28;20177;-62
2023/05/19 05:42:57;;;;;;;9.07;5.83;;;13.60;91.00;;;;;;5013117;28;20200;-63
2023/05/19 05:45:24;;;;;;;12.23;8.27;;;13.60;90.90;;;;;;5019784;28;20398;-62
2023/05/19 05:47:50;;;;;;;9.77;5.03;;;13.60;90.80;;;;;;5015314;28;20478;-62
2023/05/19 05:50:18;;;;;;;7.77;3.80;;;13.70;90.80;;;;;;5016186;28;20822;-62
2023/05/19 05:52:46;;;;;;;7.83;4.33;;;13.70;90.70;;;;;;5018610;28;20423;-62
2023/05/19 05:55:12;;;;;;;7.20;4.20;;;13.70;90.70;;;;;;5013324;28;20509;-62
2023/05/19 05:57:40;;;;;;;11.60;4.20;;;13.70;90.70;;;;;;5014947;28;20458;-62
2023/05/19 06:00:14;;;;;;;13.63;4.53;;;13.70;90.80;;;;;;5013828;28;20430;-63
2023/05/19 06:02:45;;;;;;;15.13;9.00;;;13.70;90.80;;;;;;5019809;28;20439;-63
2023/05/19 06:05:11;;;;;;;8.80;7.90;;;13.70;90.80;;;;;;5018146;28;20446;-63
2023/05/19 06:07:37;;;;;;;9.53;4.37;;;13.70;90.80;;;;;;5014837;28;20828;-63
2023/05/19 06:10:03;;;;;;;6.23;4.00;;;13.80;90.80;;;;;;5016562;28;21209;-64
2023/05/19 06:12:29;;;;;;;6.47;4.03;;;13.80;90.80;;;;;;5013718;28;20434;-63
2023/05/19 06:14:54;;;;;;;5.40;3.70;;;13.80;90.80;;;;;;5017089;28;20741;-63
2023/05/19 06:17:20;;;;;;;6.70;3.57;;;13.80;90.90;;;;;;5014921;28;20185;-63
2023/05/19 06:19:45;;;;;;;5.83;3.90;;;13.90;90.90;;;;;;5021412;28;20928;-63
2023/05/19 06:22:11;;;;;;;6.20;4.07;;;13.90;90.90;;;;;;5015211;28;20676;-63
2023/05/19 06:24:37;;;;;;;10.23;4.80;;;13.90;90.90;;;;;;5016588;28;20698;-63
2023/05/19 06:27:02;;;;;;;8.00;3.73;;;14.00;91.00;;;;;;5020681;28;20306;-63
2023/05/19 06:29:28;;;;;;;6.30;3.60;;;14.00;91.00;;;;;;5014054;28;20258;-63
2023/05/19 06:31:53;;;;;;;6.77;3.80;;;14.00;91.10;;;;;;5018297;28;20176;-63
2023/05/19 06:34:19;;;;;;;6.13;3.63;;;14.10;91.10;;;;;;5012755;28;20227;-63
2023/05/19 06:36:45;;;;;;;5.00;3.80;;;14.10;91.00;;;;;;5013819;28;20543;-63
2023/05/19 06:39:11;;;;;;;7.60;3.80;;;14.20;91.00;;;;;;5009706;28;20455;-63
2023/05/19 06:41:36;;;;;;;12.90;3.97;;;14.30;90.90;;;;;;5019892;28;20188;-63
2023/05/19 06:44:03;;;;;;;5.90;4.07;;;14.30;90.90;;;;;;5015149;28;20211;-63
2023/05/19 06:46:28;;;;;;;4.30;3.77;;;14.40;90.80;;;;;;5005139;28;20184;-63
2023/05/19 06:48:54;;;;;;;6.17;4.43;;;14.40;90.80;;;;;;5020864;28;21022;-63
2023/05/19 06:51:21;;;;;;;8.10;3.53;;;14.40;90.70;;;;;;5013250;28;20196;-63
2023/05/19 06:53:47;;;;;;;4.23;3.60;;;14.40;90.70;;;;;;5023398;28;20174;-63
2023/05/19 06:56:17;;;;;;;8.53;3.50;;;14.50;90.70;;;;;;5011376;28;20530;-63
2023/05/19 06:58:43;;;;;;;4.50;3.70;;;14.50;90.70;;;;;;5013106;28;20558;-63
2023/05/19 07:01:08;;;;;;;8.03;4.80;;;14.60;90.50;;;;;;5005924;28;20530;-64
2023/05/19 07:03:34;;;;;;;6.27;3.60;;;14.60;90.50;;;;;;5008757;28;20283;-64
2023/05/19 07:06:00;;;;;;;8.43;4.20;;;14.70;90.60;;;;;;5017622;28;20194;-61
2023/05/19 07:08:27;;;;;;;6.93;3.70;;;14.70;90.70;;;;;;5014008;28;20221;-62
2023/05/19 07:10:54;;;;;;;6.10;4.43;;;14.70;90.60;;;;;;5020945;28;20417;-63
2023/05/19 07:13:19;;;;;;;7.90;4.03;;;14.80;90.60;;;;;;5016407;28;20435;-63
2023/05/19 07:15:47;;;;;;;5.50;3.80;;;14.80;90.50;;;;;;5017615;28;20443;-63
2023/05/19 07:18:13;;;;;;;6.93;3.97;;;14.80;90.50;;;;;;5017239;28;20278;-63
2023/05/19 07:20:39;;;;;;;5.67;4.43;;;14.90;90.60;;;;;;5016284;28;20503;-62
2023/05/19 07:23:04;;;;;;;12.60;7.27;;;14.90;90.60;;;;;;5017783;28;20192;-62
2023/05/19 07:25:30;;;;;;;5.70;3.70;;;15.00;90.70;;;;;;5020223;28;20197;-62
2023/05/19 07:27:56;;;;;;;7.67;4.00;;;15.10;90.70;;;;;;5017547;28;22318;-62
2023/05/19 07:30:21;;;;;;;4.93;3.77;;;15.10;90.70;;;;;;5011605;28;20188;-62
2023/05/19 07:32:47;;;;;;;10.73;5.20;;;15.10;90.70;;;;;;5018140;28;20430;-62
2023/05/19 07:35:12;;;;;;;5.87;3.50;;;15.20;90.80;;;;;;5017893;28;20735;-62
2023/05/19 07:37:38;;;;;;;7.53;4.40;;;15.30;90.50;;;;;;5017047;28;20234;-62
2023/05/19 07:40:08;;;;;;;8.67;5.17;;;15.30;90.50;;;;;;5015607;28;20224;-63
2023/05/19 07:42:33;;;;;;;8.00;4.70;;;15.40;90.40;;;;;;5017255;28;20491;-63
2023/05/19 07:44:59;;;;;;;7.30;4.60;;;15.50;90.30;;;;;;5019044;28;20419;-63
2023/05/19 07:47:25;;;;;;;10.63;5.07;;;15.50;90.20;;;;;;5009298;28;20246;-62
2023/05/19 07:49:51;;;;;;;8.53;3.80;;;15.60;90.10;;;;;;5015184;28;20538;-62
2023/05/19 07:52:17;;;;;;;8.63;4.33;;;15.70;90.10;;;;;;5016414;28;20587;-63
2023/05/19 07:54:43;;;;;;;6.57;4.53;;;15.70;90.00;;;;;;5020645;28;20181;-63
2023/05/19 07:57:09;;;;;;;6.30;4.77;;;15.90;89.60;;;;;;5015117;28;20789;-63
2023/05/19 07:59:34;;;;;;;10.03;7.60;;;15.90;90.00;;;;;;5017849;28;20458;-63
2023/05/19 08:02:00;;;;;;;9.27;4.47;;;16.00;89.30;;;;;;5018182;28;20766;-63
2023/05/19 08:04:26;;;;;;;8.20;5.13;;;16.00;89.20;;;;;;5014392;28;20188;-64
2023/05/19 08:06:52;;;;;;;13.77;4.70;;;16.10;89.00;;;;;;5020846;28;20321;-63
2023/05/19 08:09:18;;;;;;;8.97;4.60;;;16.20;88.80;;;;;;5018129;28;21256;-64
2023/05/19 08:11:45;;;;;;;11.60;4.77;;;16.20;88.80;;;;;;5013992;28;20440;-64
2023/05/19 08:14:11;;;;;;;6.23;4.43;;;16.30;88.90;;;;;;5012646;28;20522;-63
2023/05/19 08:16:37;;;;;;;8.70;3.90;;;16.30;88.50;;;;;;5012834;28;20550;-64
2023/05/19 08:19:04;;;;;;;7.13;3.87;;;16.40;88.20;;;;;;5015565;28;20310;-64
2023/05/19 08:21:33;;;;;;;15.23;4.10;;;16.50;88.10;;;;;;5016719;28;20192;-64
2023/05/19 08:24:00;;;;;;;4.77;3.70;;;16.60;87.70;;;;;;5016371;28;20775;-64
2023/05/19 08:26:26;;;;;;;7.13;3.57;;;16.60;87.50;;;;;;5020941;28;20431;-64
2023/05/19 08:28:51;;;;;;;8.83;4.23;;;16.70;87.70;;;;;;5014655;28;20482;-62
2023/05/19 08:31:17;;;;;;;11.10;4.17;;;16.70;87.20;;;;;;5018197;28;20673;-62
2023/05/19 08:33:43;;;;;;;9.93;4.60;;;16.80;86.50;;;;;;5013568;28;20188;-63
2023/05/19 08:36:08;;;;;;;5.80;4.53;;;16.90;86.40;;;;;;5018117;28;20485;-62
2023/05/19 08:38:34;;;;;;;10.20;4.00;;;17.00;86.10;;;;;;5011380;28;20258;-62
2023/05/19 08:41:00;;;;;;;10.60;4.70;;;17.00;85.90;;;;;;5017581;28;20204;-65
2023/05/19 08:43:26;;;;;;;7.33;4.13;;;17.00;86.00;;;;;;5017362;28;20279;-64
2023/05/19 08:45:54;;;;;;;7.50;3.70;;;17.10;85.60;;;;;;5014732;28;21171;-63
2023/05/19 08:48:21;;;;;;;7.30;4.20;;;17.10;85.70;;;;;;5013079;28;21009;-64
2023/05/19 08:51:19;;;;;;;7.87;4.63;;;17.10;85.70;;;;;;5017758;28;20453;-65
2023/05/19 08:53:50;;;;;;;6.00;4.20;;;17.20;85.50;;;;;;5020031;28;20502;-63
2023/05/19 08:56:21;;;;;;;9.00;4.90;;;17.20;85.90;;;;;;5011245;28;20439;-63
2023/05/19 08:58:49;;;;;;;9.50;4.70;;;17.40;84.50;;;;;;5013818;28;20835;-64
2023/05/19 09:01:17;;;;;;;9.63;6.50;;;17.50;84.10;;;;;;5009865;28;20435;-64
2023/05/19 09:03:45;;;;;;;8.77;4.53;;;17.70;83.60;;;;;;5017359;28;20489;-63
2023/05/19 09:06:13;;;;;;;6.40;4.53;;;17.80;82.70;;;;;;5015154;28;20809;-64
2023/05/19 09:08:42;;;;;;;9.17;3.90;;;17.90;82.20;;;;;;5011317;28;20850;-61
2023/05/19 09:11:09;;;;;;;5.20;4.03;;;18.00;82.90;;;;;;5022997;28;20610;-64
2023/05/19 09:13:35;;;;;;;5.23;4.17;;;18.10;81.50;;;;;;5014626;28;20813;-63
2023/05/19 09:16:02;;;;;;;5.60;4.03;;;18.20;81.20;;;;;;5019581;28;20488;-63
2023/05/19 09:18:27;;;;;;;8.87;4.60;;;18.30;80.50;;;;;;5022965;28;20227;-63
2023/05/19 09:21:01;;;;;;;9.20;3.93;;;18.30;79.50;;;;;;5029282;28;20450;-63
2023/05/19 09:23:28;;;;;;;7.70;4.37;;;18.50;78.80;;;;;;5024473;28;20177;-63
2023/05/19 09:25:55;;;;;;;7.13;4.17;;;18.60;78.30;;;;;;5016543;28;20435;-63
2023/05/19 09:28:28;;;;;;;7.00;4.10;;;18.70;77.70;;;;;;5015151;28;20494;-62
2023/05/19 09:31:05;;;;;;;7.60;4.23;;;18.80;77.00;;;;;;5016484;28;20936;-63
2023/05/19 09:33:35;;;;;;;8.70;4.20;;;18.80;75.10;;;;;;5021726;28;20478;-63
2023/05/19 09:36:04;;;;;;;6.67;4.43;;;18.90;73.40;;;;;;5023230;28;20420;-63
2023/05/19 09:38:29;;;;;;;5.53;3.70;;;19.00;72.60;;;;;;5023767;28;20463;-62
2023/05/19 09:40:56;;;;;;;7.57;3.83;;;19.00;72.10;;;;;;5017984;28;20449;-63
2023/05/19 09:43:22;;;;;;;7.33;4.07;;;19.10;72.50;;;;;;5021174;28;20255;-63
2023/05/19 09:45:54;;;;;;;6.87;4.03;;;19.20;72.40;;;;;;5022814;28;20435;-63
2023/05/19 09:48:19;;;;;;;4.83;4.13;;;19.30;72.30;;;;;;5020364;28;20557;-63
2023/05/19 09:50:45;;;;;;;4.63;3.33;;;19.50;71.30;;;;;;5018526;28;21058;-64
2023/05/19 09:53:16;;;;;;;5.77;3.80;;;19.60;69.90;;;;;;5017286;28;20185;-64
2023/05/19 09:55:41;;;;;;;5.07;4.20;;;19.70;70.10;;;;;;5017034;28;20987;-64
2023/05/19 09:58:08;;;;;;;9.40;5.60;;;19.70;69.50;;;;;;5018255;28;20439;-63
2023/05/19 10:00:33;;;;;;;7.53;3.90;;;20.00;69.20;;;;;;5024969;28;20542;-62
2023/05/19 10:03:00;;;;;;;6.40;4.93;;;20.20;68.90;;;;;;5020639;28;20444;-63
2023/05/19 10:05:27;;;;;;;6.80;4.23;;;20.30;68.10;;;;;;5023616;28;20272;-62
2023/05/19 10:07:54;;;;;;;6.93;4.23;;;20.50;67.90;;;;;;5024636;28;20470;-63
2023/05/19 10:10:21;;;;;;;13.70;4.90;;;20.70;67.30;;;;;;5016090;28;20458;-62
2023/05/19 10:12:50;;;;;;;7.30;3.70;;;20.90;66.50;;;;;;5018020;28;20796;-63
2023/05/19 10:15:17;;;;;;;5.50;3.77;;;21.00;65.20;;;;;;5020737;28;20476;-63
2023/05/19 10:17:44;;;;;;;4.83;4.43;;;21.20;64.40;;;;;;5024331;28;20972;-63
2023/05/19 10:20:14;;;;;;;7.47;4.80;;;21.40;64.20;;;;;;5021022;28;20549;-63
2023/05/19 10:22:41;;;;;;;7.00;4.17;;;21.50;63.70;;;;;;5026701;28;20967;-63
2023/05/19 10:25:08;;;;;;;9.37;3.97;;;21.60;62.50;;;;;;5020548;28;20435;-63
2023/05/19 10:27:43;;;;;;;4.53;3.30;;;21.60;62.30;;;;;;5015282;28;20420;-64
2023/05/19 10:30:15;;;;;;;5.10;3.57;;;21.70;61.60;;;;;;5024345;28;20418;-64
2023/05/19 10:32:42;;;;;;;5.83;3.70;;;21.80;61.10;;;;;;5021859;28;20470;-63
2023/05/19 10:35:37;;;;;;;5.87;3.97;;;21.80;59.40;;;;;;5013527;28;20482;-63
2023/05/19 10:38:03;;;;;;;8.03;3.60;;;22.00;59.60;;;;;;5006239;28;20663;-64
2023/05/19 10:40:35;;;;;;;8.23;4.27;;;22.20;59.70;;;;;;5018476;28;20423;-63
2023/05/19 10:43:31;;;;;;;6.93;3.23;;;22.40;59.70;;;;;;5021970;28;20187;-63
2023/05/19 10:45:57;;;;;;;5.73;3.97;;;22.60;59.10;;;;;;5022681;28;20892;-64
2023/05/19 10:48:23;;;;;;;5.30;4.00;;;22.80;58.80;;;;;;5016759;28;20713;-63
2023/05/19 10:50:53;;;;;;;5.40;3.80;;;22.90;58.50;;;;;;5021270;28;20579;-63
2023/05/19 10:53:21;;;;;;;7.03;3.17;;;23.00;58.30;;;;;;5019802;28;20184;-63
2023/05/19 10:55:54;;;;;;;5.33;3.57;;;23.10;58.00;;;;;;5018312;28;20916;-63
2023/05/19 10:58:44;;;;;;;4.13;3.60;;;23.00;57.00;;;;;;5022553;28;20820;-62
2023/05/19 11:01:13;;;;;;;6.63;4.73;;;23.10;57.20;;;;;;5016668;28;20454;-63
2023/05/19 11:03:51;;;;;;;6.03;3.50;;;23.30;57.10;;;;;;5017974;28;20443;-63
2023/05/19 11:06:26;;;;;;;9.27;4.57;;;23.50;57.20;;;;;;5024790;28;20424;-64
2023/05/19 11:09:03;;;;;;;6.77;3.80;;;23.50;57.30;;;;;;5019949;28;20534;-64
2023/05/19 11:11:48;;;;;;;6.73;4.00;;;23.50;57.20;;;;;;5019046;28;20435;-64
2023/05/19 11:14:18;;;;;;;8.10;3.60;;;23.60;57.00;;;;;;5023104;28;20427;-64
2023/05/19 11:16:47;;;;;;;4.97;3.27;;;23.70;56.90;;;;;;5017466;28;20492;-64
2023/05/19 11:19:28;;;;;;;4.53;3.80;;;23.80;56.40;;;;;;5022000;28;21031;-64
2023/05/19 11:21:54;;;;;;;5.30;3.43;;;23.80;56.60;;;;;;5016099;28;20424;-64
2023/05/19 11:24:49;;;;;;;7.43;3.60;;;23.80;56.00;;;;;;5015764;28;20839;-64
2023/05/19 11:27:32;;;;;;;5.73;3.77;;;23.90;55.90;;;;;;5020120;28;20537;-64
2023/05/19 11:30:13;;;;;;;4.93;3.57;;;24.00;56.00;;;;;;5015246;28;20447;-64
2023/05/19 11:32:40;;;;;;;3.73;3.30;;;24.10;55.60;;;;;;5020540;28;20946;-64
2023/05/19 11:35:08;;;;;;;5.20;3.73;;;24.30;55.70;;;;;;5018089;28;20510;-64
2023/05/19 11:37:34;;;;;;;4.83;3.20;;;24.40;55.40;;;;;;5017473;28;20415;-64
2023/05/19 11:40:07;;;;;;;4.90;3.90;;;24.40;54.70;;;;;;5014768;28;20967;-64
2023/05/19 11:42:34;;;;;;;4.30;3.30;;;24.40;54.60;;;;;;5017302;28;20988;-64
2023/05/19 11:45:00;;;;;;;3.77;3.23;;;24.20;54.60;;;;;;5022113;28;20481;-64
2023/05/19 11:47:26;;;;;;;12.10;3.70;;;24.00;54.20;;;;;;5020529;28;20759;-64
2023/05/19 11:49:55;;;;;;;6.10;3.60;;;24.00;54.50;;;;;;5016604;28;20486;-64
2023/05/19 11:52:22;;;;;;;6.80;3.43;;;24.10;54.80;;;;;;5019411;28;20697;-64
2023/05/19 11:54:48;;;;;;;4.80;3.90;;;24.20;54.70;;;;;;5017227;28;20439;-64
2023/05/19 11:57:14;;;;;;;6.37;3.70;;;24.20;54.40;;;;;;5014308;28;20484;-64
2023/05/19 11:59:44;;;;;;;4.50;3.80;;;24.20;54.50;;;;;;5013114;28;20451;-65
2023/05/19 12:02:19;;;;;;;5.37;3.60;;;24.20;54.60;;;;;;5020927;28;20454;-64
2023/05/19 12:04:46;;;;;;;4.13;3.67;;;24.10;54.30;;;;;;5022133;28;20559;-64
2023/05/19 12:07:16;;;;;;;5.13;3.70;;;24.00;54.60;;;;;;5030357;28;20447;-64
2023/05/19 12:09:42;;;;;;;6.27;3.47;;;23.90;54.70;;;;;;5021695;28;20957;-64
2023/05/19 12:12:08;;;;;;;5.23;3.50;;;23.70;54.40;;;;;;5016364;28;20970;-64
2023/05/19 12:14:34;;;;;;;5.80;3.43;;;23.50;55.00;;;;;;5018470;28;20430;-64
2023/05/19 12:17:10;;;;;;;5.73;3.67;;;23.40;55.10;;;;;;5018923;28;20183;-63
2023/05/19 12:19:36;;;;;;;4.80;3.30;;;23.30;55.50;;;;;;5018078;28;20493;-63
2023/05/19 12:22:02;;;;;;;4.40;3.40;;;23.30;55.60;;;;;;5023535;28;20427;-63
2023/05/19 12:24:28;;;;;;;6.63;3.80;;;23.30;55.60;;;;;;5023123;28;20334;-63
2023/05/19 12:27:25;;;;;;;4.60;3.00;;;23.20;55.50;;;;;;5022919;28;20185;-63
2023/05/19 12:29:52;;;;;;;3.50;3.20;;;23.00;55.70;;;;;;5046154;28;20212;-63
2023/05/19 12:32:21;;;;;;;6.90;3.63;;;22.80;56.20;;;;;;5021673;28;21157;-63
2023/05/19 12:34:48;;;;;;;5.07;3.83;;;22.70;56.20;;;;;;5020468;28;20427;-63
2023/05/19 12:37:13;;;;;;;3.80;3.50;;;22.50;56.50;;;;;;5022598;28;20427;-63
2023/05/19 12:39:41;;;;;;;4.40;3.40;;;22.40;56.80;;;;;;5017491;28;20448;-63
2023/05/19 12:42:08;;;;;;;9.73;4.10;;;22.40;57.10;;;;;;5010777;28;20665;-63
2023/05/19 12:44:38;;;;;;;5.80;4.00;;;22.30;57.20;;;;;;5022973;28;20915;-63
2023/05/19 12:47:05;;;;;;;6.03;4.10;;;22.20;57.40;;;;;;5022382;28;20492;-63
2023/05/19 12:49:32;;;;;;;5.20;4.30;;;22.10;57.60;;;;;;5020259;28;20462;-63